Time;durP1;ratioP1;P1;durP2;ratioP2;P2;SDS_P1;SDS_P2;PMS_P1;PMS_P2;Temp;Humidity;BMP_temperature;BMP_pressure;BME280_temperature;BME280_humidity;BME280_pressure;Samples;Min_cycle;Max_cycle;Signal;HPM_P1;HPM_P2
2023/02/27 00:01:32;;;;;;;0.95;0.65;;;18.90;51.70;;;;;;6269701;28;20035;-71
2023/02/27 00:04:32;;;;;;;1.50;0.90;;;18.90;51.40;;;;;;6269546;28;20033;-70
2023/02/27 00:07:33;;;;;;;1.25;0.93;;;18.90;51.60;;;;;;6268094;28;20478;-71
2023/02/27 00:10:33;;;;;;;0.98;0.65;;;18.90;51.60;;;;;;6269179;28;20670;-71
2023/02/27 00:13:35;;;;;;;0.95;0.65;;;18.90;51.60;;;;;;6268116;28;20031;-71
2023/02/27 00:16:36;;;;;;;1.20;0.77;;;18.90;51.60;;;;;;6268017;28;20029;-71
2023/02/27 00:19:36;;;;;;;1.27;0.88;;;18.90;51.40;;;;;;6269078;28;20064;-71
2023/02/27 00:22:38;;;;;;;1.30;0.60;;;18.90;51.70;;;;;;6269189;28;20013;-71
2023/02/27 00:25:38;;;;;;;1.08;0.70;;;18.90;51.40;;;;;;6269114;28;20036;-71
2023/02/27 00:28:39;;;;;;;1.27;0.77;;;18.90;51.60;;;;;;6268980;28;20017;-71
2023/02/27 00:31:40;;;;;;;1.30;0.80;;;18.90;51.50;;;;;;6269093;28;20013;-71
2023/02/27 00:34:40;;;;;;;1.02;0.68;;;18.90;51.40;;;;;;6267615;28;20102;-71
2023/02/27 00:37:41;;;;;;;0.80;0.60;;;18.90;51.60;;;;;;6269119;28;20048;-72
2023/02/27 00:40:42;;;;;;;1.00;0.70;;;18.90;51.50;;;;;;6267590;28;20418;-72
2023/02/27 00:43:42;;;;;;;4.90;0.85;;;18.90;51.60;;;;;;6267762;28;20021;-72
2023/02/27 00:46:43;;;;;;;0.90;0.70;;;18.90;51.50;;;;;;6267530;28;20403;-71
2023/02/27 00:49:44;;;;;;;1.20;0.73;;;18.90;51.70;;;;;;6273069;28;20474;-71
2023/02/27 00:52:44;;;;;;;1.17;0.80;;;18.90;51.60;;;;;;6272555;28;20073;-71
2023/02/27 00:55:45;;;;;;;0.98;0.75;;;18.90;51.50;;;;;;6272499;28;20386;-72
2023/02/27 00:58:46;;;;;;;0.90;0.70;;;18.90;51.60;;;;;;6273426;28;20060;-72
2023/02/27 01:01:47;;;;;;;1.20;0.90;;;18.90;51.50;;;;;;6273535;28;20064;-71
2023/02/27 01:04:47;;;;;;;0.77;0.63;;;18.90;51.60;;;;;;6273693;28;20029;-72
2023/02/27 01:07:48;;;;;;;1.55;0.60;;;18.90;51.50;;;;;;6272509;28;20519;-71
2023/02/27 01:10:49;;;;;;;0.68;0.52;;;18.90;51.60;;;;;;6272020;28;20548;-71
2023/02/27 01:13:50;;;;;;;0.80;0.80;;;18.90;51.50;;;;;;6273318;28;20017;-72
2023/02/27 01:16:51;;;;;;;1.13;0.85;;;18.90;51.60;;;;;;6273061;28;20489;-71
2023/02/27 01:19:52;;;;;;;0.75;0.65;;;18.90;51.50;;;;;;6271639;28;20049;-72
2023/02/27 01:22:52;;;;;;;0.98;0.70;;;18.90;51.50;;;;;;6273257;28;20021;-71
2023/02/27 01:25:53;;;;;;;1.25;0.70;;;18.90;51.60;;;;;;6272992;28;20431;-72
2023/02/27 01:28:53;;;;;;;1.17;0.80;;;18.90;51.50;;;;;;6272999;28;20045;-71
2023/02/27 01:31:54;;;;;;;0.98;0.63;;;18.90;51.50;;;;;;6271743;28;20110;-72
2023/02/27 01:34:55;;;;;;;0.50;0.50;;;18.90;51.60;;;;;;6272646;28;20013;-71
2023/02/27 01:37:56;;;;;;;0.70;0.60;;;18.90;51.60;;;;;;6271492;28;20469;-72
2023/02/27 01:40:57;;;;;;;1.00;0.75;;;18.90;51.50;;;;;;6272905;28;20029;-72
2023/02/27 01:44:04;;;;;;;0.90;0.77;;;18.90;51.50;;;;;;6271299;28;20032;-71
2023/02/27 01:47:05;;;;;;;0.95;0.73;;;18.90;51.40;;;;;;6272313;28;20382;-71
2023/02/27 01:50:07;;;;;;;1.13;0.70;;;18.90;51.50;;;;;;6271287;28;20032;-71
2023/02/27 01:53:08;;;;;;;3.30;0.70;;;18.90;51.70;;;;;;6271113;28;20099;-73
2023/02/27 01:56:15;;;;;;;1.58;0.90;;;18.90;51.60;;;;;;6272378;28;20021;-71
2023/02/27 01:59:17;;;;;;;0.90;0.73;;;18.90;51.60;;;;;;6271635;28;20059;-71
2023/02/27 02:02:25;;;;;;;2.10;0.65;;;18.80;51.50;;;;;;6270812;28;20188;-72
2023/02/27 02:05:26;;;;;;;1.08;0.73;;;18.80;51.50;;;;;;6272139;28;20385;-71
2023/02/27 02:08:31;;;;;;;0.93;0.70;;;18.90;51.60;;;;;;6270449;28;20375;-71
2023/02/27 02:11:32;;;;;;;1.42;0.85;;;18.90;51.60;;;;;;6270826;28;20416;-71
2023/02/27 02:14:33;;;;;;;1.00;0.90;;;18.90;51.60;;;;;;6271829;28;20029;-72
2023/02/27 02:18:13;;;;;;;1.10;0.93;;;18.80;51.40;;;;;;6271946;28;20060;-72
2023/02/27 02:21:17;;;;;;;1.05;0.75;;;18.90;51.50;;;;;;6271974;28;20124;-72
2023/02/27 02:24:36;;;;;;;1.15;0.68;;;18.90;51.60;;;;;;6271384;28;20060;-71
2023/02/27 02:27:42;;;;;;;1.55;0.80;;;18.90;51.70;;;;;;6271652;28;20059;-72
2023/02/27 02:31:09;;;;;;;1.20;0.70;;;18.90;51.60;;;;;;6271820;28;20497;-71
2023/02/27 02:34:53;;;;;;;0.95;0.70;;;18.80;51.30;;;;;;6271657;28;20056;-71
2023/02/27 02:38:35;;;;;;;1.00;0.70;;;18.90;51.60;;;;;;6271344;28;20041;-72
2023/02/27 02:42:09;;;;;;;0.80;0.60;;;18.90;51.60;;;;;;6270097;28;20108;-70
2023/02/27 02:45:10;;;;;;;1.00;0.70;;;18.80;51.50;;;;;;6271152;28;20455;-71
2023/02/27 02:48:16;;;;;;;1.25;0.80;;;18.90;51.60;;;;;;6271014;28;20040;-71
2023/02/27 02:51:33;;;;;;;1.13;0.80;;;18.80;51.60;;;;;;6269859;28;20098;-71
2023/02/27 02:54:51;;;;;;;0.98;0.50;;;18.80;51.50;;;;;;6271114;28;20071;-71
2023/02/27 02:58:14;;;;;;;0.90;0.52;;;18.80;51.60;;;;;;6270602;28;20024;-72
2023/02/27 03:01:20;;;;;;;0.90;0.70;;;18.80;51.40;;;;;;6270803;28;20033;-72
2023/02/27 03:04:34;;;;;;;0.77;0.60;;;18.80;52.20;;;;;;6269531;28;20385;-72
2023/02/27 03:07:43;;;;;;;0.60;0.60;;;18.80;51.50;;;;;;6270839;28;20055;-71
2023/02/27 03:11:10;;;;;;;1.27;0.93;;;18.80;51.40;;;;;;6268864;28;20017;-72
2023/02/27 03:14:20;;;;;;;1.45;0.63;;;18.80;51.50;;;;;;6268911;28;20036;-72
2023/02/27 03:17:58;;;;;;;0.85;0.60;;;18.80;51.60;;;;;;6270653;28;20397;-71
2023/02/27 03:21:05;;;;;;;0.80;0.65;;;18.80;51.40;;;;;;6269542;28;20171;-71
2023/02/27 03:24:11;;;;;;;0.68;0.50;;;18.80;51.50;;;;;;6270135;28;20699;-71
2023/02/27 03:27:12;;;;;;;0.80;0.60;;;18.80;51.50;;;;;;6270552;28;20036;-72
2023/02/27 03:30:39;;;;;;;0.60;0.50;;;18.80;51.60;;;;;;6270294;28;20077;-71
2023/02/27 03:34:17;;;;;;;1.17;0.80;;;18.80;51.60;;;;;;6270225;28;20017;-71
2023/02/27 03:37:55;;;;;;;1.35;0.80;;;18.80;51.60;;;;;;6268974;28;20529;-72
2023/02/27 03:41:18;;;;;;;0.75;0.60;;;18.80;51.40;;;;;;6269688;28;20021;-72
2023/02/27 03:44:31;;;;;;;1.35;0.70;;;18.80;51.50;;;;;;6269433;28;20025;-72
2023/02/27 03:47:33;;;;;;;0.73;0.50;;;18.80;51.50;;;;;;6269777;28;20025;-71
2023/02/27 03:50:37;;;;;;;0.95;0.85;;;18.80;51.60;;;;;;6269829;28;20028;-72
2023/02/27 03:54:14;;;;;;;0.65;0.57;;;18.80;51.70;;;;;;6268829;28;20021;-72
2023/02/27 03:57:15;;;;;;;0.95;0.80;;;18.80;51.50;;;;;;6269143;28;20037;-71
2023/02/27 04:00:19;;;;;;;1.00;0.60;;;18.80;51.70;;;;;;6267973;28;20032;-72
2023/02/27 04:03:21;;;;;;;1.33;0.68;;;18.80;51.60;;;;;;6268453;28;20474;-71
2023/02/27 04:10:02;;;;;;;0.85;0.57;;;18.80;51.70;;;;;;6269062;28;20123;-71
2023/02/27 04:13:24;;;;;;;0.85;0.60;;;18.80;51.70;;;;;;6269323;28;20020;-71
2023/02/27 04:16:47;;;;;;;0.82;0.60;;;18.80;51.60;;;;;;6268215;28;20379;-71
2023/02/27 04:20:15;;;;;;;0.60;0.60;;;18.80;51.70;;;;;;6269580;28;20080;-72
2023/02/27 04:23:41;;;;;;;0.80;0.70;;;18.80;51.70;;;;;;6269137;28;20043;-71
2023/02/27 04:26:55;;;;;;;1.15;0.70;;;18.80;51.60;;;;;;6267677;28;20037;-71
2023/02/27 04:30:10;;;;;;;0.90;0.68;;;18.80;51.50;;;;;;6268998;28;20458;-72
2023/02/27 04:33:34;;;;;;;1.23;0.70;;;18.80;51.70;;;;;;6269612;28;20524;-72
2023/02/27 04:37:00;;;;;;;0.70;0.60;;;18.80;51.70;;;;;;6269072;28;20573;-71
2023/02/27 04:40:33;;;;;;;0.65;0.57;;;18.80;51.60;;;;;;6268316;28;20040;-72
2023/02/27 04:43:37;;;;;;;0.88;0.70;;;18.80;51.70;;;;;;6268565;28;20407;-71
2023/02/27 04:46:41;;;;;;;1.80;0.97;;;18.80;51.50;;;;;;6268869;28;20045;-71
2023/02/27 04:50:18;;;;;;;0.70;0.60;;;18.80;51.60;;;;;;6269182;28;20574;-71
2023/02/27 04:53:42;;;;;;;0.95;0.75;;;18.80;51.70;;;;;;6268852;28;20401;-72
2023/02/27 04:56:52;;;;;;;1.52;0.88;;;18.80;51.60;;;;;;6268741;28;20029;-72
2023/02/27 05:00:34;;;;;;;1.08;0.80;;;18.80;51.70;;;;;;6267326;28;20017;-71
2023/02/27 05:03:39;;;;;;;1.02;0.50;;;18.80;51.60;;;;;;6268924;28;20032;-72
2023/02/27 05:06:43;;;;;;;0.73;0.70;;;18.80;51.70;;;;;;6267747;28;20458;-71
2023/02/27 05:09:51;;;;;;;1.15;0.68;;;18.70;51.60;;;;;;6267530;28;20056;-71
2023/02/27 05:13:31;;;;;;;1.25;0.93;;;18.80;51.60;;;;;;6268572;28;20085;-71
2023/02/27 05:16:40;;;;;;;0.55;0.50;;;18.80;51.70;;;;;;6267554;28;20851;-71
2023/02/27 05:19:42;;;;;;;0.65;0.60;;;18.80;51.70;;;;;;6266720;28;20041;-71
2023/02/27 05:23:10;;;;;;;1.55;0.52;;;18.80;51.70;;;;;;6268507;28;20560;-71
2023/02/27 05:26:29;;;;;;;1.00;0.60;;;18.80;51.80;;;;;;6268626;28;20040;-71
2023/02/27 05:29:38;;;;;;;1.00;0.60;;;18.80;51.80;;;;;;6268300;28;20500;-72
2023/02/27 05:32:47;;;;;;;0.88;0.60;;;18.80;51.80;;;;;;6268663;28;20017;-71
2023/02/27 05:36:10;;;;;;;0.90;0.60;;;18.80;51.90;;;;;;6270775;28;20493;-70
2023/02/27 05:39:13;;;;;;;1.77;0.70;;;18.80;51.80;;;;;;6273218;28;20017;-72
2023/02/27 05:42:29;;;;;;;0.80;0.60;;;18.80;51.90;;;;;;6273142;28;20116;-71
2023/02/27 05:45:33;;;;;;;0.80;0.80;;;18.80;51.90;;;;;;6271350;28;20078;-71
2023/02/27 05:48:45;;;;;;;0.70;0.70;;;18.80;51.90;;;;;;6272801;28;20025;-73
2023/02/27 05:51:49;;;;;;;0.70;0.50;;;18.80;51.90;;;;;;6271210;28;20421;-71
2023/02/27 05:55:19;;;;;;;0.73;0.70;;;18.80;51.90;;;;;;6273262;28;20025;-71
2023/02/27 05:58:48;;;;;;;1.20;0.70;;;18.80;51.90;;;;;;6272023;28;20065;-71
2023/02/27 06:01:49;;;;;;;0.90;0.60;;;18.80;51.90;;;;;;6272497;28;20021;-71
2023/02/27 06:04:50;;;;;;;1.27;0.70;;;18.80;52.00;;;;;;6272329;28;20421;-72
2023/02/27 06:07:50;;;;;;;0.90;0.60;;;18.80;51.90;;;;;;6272138;28;20025;-71
2023/02/27 06:10:51;;;;;;;1.75;0.80;;;18.80;52.00;;;;;;6272113;28;20478;-72
2023/02/27 06:13:52;;;;;;;0.85;0.77;;;18.80;52.00;;;;;;6272284;28;20021;-71
2023/02/27 06:16:53;;;;;;;1.02;0.80;;;18.80;52.00;;;;;;6270841;28;20052;-71
2023/02/27 06:19:53;;;;;;;0.98;0.70;;;18.90;52.10;;;;;;6271774;28;20120;-71
2023/02/27 06:22:54;;;;;;;0.95;0.80;;;18.90;52.10;;;;;;6270557;28;20711;-71
2023/02/27 06:25:55;;;;;;;0.60;0.50;;;18.90;52.10;;;;;;6270354;28;20021;-71
2023/02/27 06:28:55;;;;;;;1.02;0.73;;;18.90;52.10;;;;;;6271649;28;20093;-72
2023/02/27 06:31:56;;;;;;;0.65;0.60;;;18.90;52.10;;;;;;6272193;28;20017;-71
2023/02/27 06:34:57;;;;;;;0.70;0.63;;;18.90;52.10;;;;;;6270040;28;20478;-71
2023/02/27 06:37:58;;;;;;;1.15;0.70;;;18.80;52.00;;;;;;6270557;28;20488;-71
2023/02/27 06:40:58;;;;;;;0.90;0.63;;;18.80;52.10;;;;;;6269961;28;20017;-71
2023/02/27 06:44:00;;;;;;;1.10;0.90;;;18.80;52.10;;;;;;6271825;28;20025;-72
2023/02/27 06:47:01;;;;;;;1.05;0.70;;;18.80;52.00;;;;;;6271269;28;20076;-71
2023/02/27 06:50:04;;;;;;;0.68;0.60;;;18.80;52.00;;;;;;6271357;28;20104;-72
2023/02/27 06:53:05;;;;;;;1.33;0.73;;;18.90;52.20;;;;;;6271051;28;20021;-71
2023/02/27 06:56:06;;;;;;;1.88;0.80;;;18.90;52.10;;;;;;6270940;28;20021;-72
2023/02/27 06:59:07;;;;;;;1.00;0.70;;;18.90;52.10;;;;;;6272469;28;20032;-69
2023/02/27 07:02:13;;;;;;;1.60;0.60;;;18.90;52.10;;;;;;6267281;28;20094;-68
2023/02/27 07:05:13;;;;;;;3.53;0.70;;;18.90;51.90;;;;;;6272199;28;20052;-69
2023/02/27 07:08:16;;;;;;;2.80;0.80;;;18.90;51.90;;;;;;6272624;28;20033;-69
2023/02/27 07:11:16;;;;;;;0.80;0.70;;;18.90;51.90;;;;;;6270138;28;20025;-68
2023/02/27 07:14:17;;;;;;;1.63;0.73;;;18.90;52.00;;;;;;6271208;28;20072;-70
2023/02/27 07:17:18;;;;;;;2.80;0.70;;;18.90;52.00;;;;;;6247074;28;20025;-70
2023/02/27 07:20:19;;;;;;;5.10;0.90;;;18.90;52.10;;;;;;6276399;28;20059;-70
2023/02/27 07:23:21;;;;;;;8.07;1.20;;;18.90;52.10;;;;;;6296061;28;20170;-70
2023/02/27 07:26:22;;;;;;;2.95;0.80;;;19.00;53.40;;;;;;6271205;28;20390;-71
2023/02/27 07:29:23;;;;;;;10.93;0.93;;;19.00;52.40;;;;;;6270994;28;20021;-72
2023/02/27 07:32:23;;;;;;;12.45;1.00;;;19.00;52.40;;;;;;6291062;28;20028;-74
2023/02/27 07:35:24;;;;;;;4.35;0.90;;;19.00;52.40;;;;;;6290074;28;20126;-69
2023/02/27 07:38:25;;;;;;;12.07;1.30;;;18.90;52.30;;;;;;6270647;28;20150;-70
2023/02/27 07:41:26;;;;;;;5.90;1.50;;;18.90;50.90;;;;;;6270722;28;20025;-72
2023/02/27 07:44:27;;;;;;;4.43;1.00;;;18.90;50.70;;;;;;6271621;28;20508;-68
2023/02/27 07:47:29;;;;;;;8.95;2.00;;;18.90;51.20;;;;;;6271180;28;20048;-68
2023/02/27 07:50:29;;;;;;;4.25;1.50;;;18.90;50.10;;;;;;6274440;28;20445;-68
2023/02/27 07:53:30;;;;;;;7.25;1.60;;;18.90;49.10;;;;;;6282094;28;20025;-68
2023/02/27 07:56:31;;;;;;;8.05;1.70;;;18.90;48.60;;;;;;6246956;28;20502;-67
2023/02/27 07:59:32;;;;;;;7.97;2.13;;;18.90;48.90;;;;;;6246215;28;20021;-67
2023/02/27 08:02:32;;;;;;;4.90;1.88;;;18.90;49.30;;;;;;6268683;28;20486;-67
2023/02/27 08:05:34;;;;;;;6.85;1.98;;;18.90;49.50;;;;;;6270091;28;20029;-68
2023/02/27 08:08:35;;;;;;;3.25;1.45;;;18.90;49.70;;;;;;6270866;28;20102;-68
2023/02/27 08:11:36;;;;;;;6.40;1.33;;;18.90;49.80;;;;;;6271261;28;20021;-67
2023/02/27 08:14:37;;;;;;;2.80;1.45;;;18.90;50.00;;;;;;6271153;28;20029;-68
2023/02/27 08:17:38;;;;;;;4.18;1.52;;;18.90;50.10;;;;;;6271141;28;20429;-68
2023/02/27 08:20:38;;;;;;;5.68;1.52;;;18.90;50.20;;;;;;6270577;28;20053;-67
2023/02/27 08:23:39;;;;;;;2.45;1.23;;;18.90;50.30;;;;;;6270941;28;20083;-68
2023/02/27 08:26:40;;;;;;;2.75;1.38;;;18.90;50.40;;;;;;6270821;28;20435;-68
2023/02/27 08:29:42;;;;;;;3.80;1.30;;;18.80;50.40;;;;;;6271074;28;20501;-67
2023/02/27 08:32:44;;;;;;;3.88;1.20;;;18.90;50.30;;;;;;6270894;28;20048;-67
2023/02/27 08:35:45;;;;;;;4.43;1.60;;;18.80;50.50;;;;;;6270842;28;20238;-67
2023/02/27 08:38:45;;;;;;;2.10;1.20;;;18.90;50.30;;;;;;6270838;28;20369;-67
2023/02/27 08:41:46;;;;;;;4.00;1.45;;;18.90;50.40;;;;;;6270020;28;20025;-68
2023/02/27 08:44:49;;;;;;;2.22;1.25;;;18.90;50.50;;;;;;6270964;28;20021;-67
2023/02/27 08:47:49;;;;;;;2.03;1.10;;;18.90;50.50;;;;;;6269498;28;20037;-68
2023/02/27 08:50:51;;;;;;;4.93;1.40;;;18.90;50.60;;;;;;6270858;28;20382;-68
2023/02/27 08:53:54;;;;;;;2.05;1.35;;;18.90;50.70;;;;;;6270742;28;20020;-67
2023/02/27 08:56:55;;;;;;;3.97;1.48;;;18.90;50.90;;;;;;6269325;28;20025;-68
2023/02/27 08:59:56;;;;;;;2.00;1.08;;;18.90;50.80;;;;;;6269089;28;20647;-67
2023/02/27 09:02:56;;;;;;;4.07;1.27;;;18.90;50.90;;;;;;6270871;28;20500;-68
2023/02/27 09:05:57;;;;;;;1.67;1.00;;;18.90;51.00;;;;;;6270778;28;20061;-67
2023/02/27 09:08:58;;;;;;;2.50;1.10;;;18.90;51.00;;;;;;6270709;28;20041;-68
2023/02/27 09:11:59;;;;;;;2.83;1.20;;;18.90;51.10;;;;;;6274635;28;20021;-67
2023/02/27 09:14:59;;;;;;;1.77;1.35;;;18.90;51.10;;;;;;6275167;28;20475;-67
2023/02/27 09:18:01;;;;;;;2.13;1.17;;;18.90;51.10;;;;;;6274981;28;20031;-67
2023/02/27 09:21:02;;;;;;;4.00;1.17;;;18.90;51.20;;;;;;6273455;28;20041;-68
2023/02/27 09:24:04;;;;;;;1.88;1.10;;;18.90;51.20;;;;;;6273357;28;20021;-68
2023/02/27 09:27:05;;;;;;;1.83;1.17;;;18.90;51.20;;;;;;6274977;28;20059;-67
2023/02/27 09:30:06;;;;;;;1.52;1.08;;;18.90;51.20;;;;;;6274671;28;20138;-69
2023/02/27 09:33:07;;;;;;;1.92;1.20;;;18.90;51.30;;;;;;6275659;28;20021;-68
2023/02/27 09:36:08;;;;;;;2.40;1.02;;;18.90;51.30;;;;;;6274639;28;20028;-68
2023/02/27 09:39:09;;;;;;;1.40;1.00;;;18.90;51.30;;;;;;6264096;28;20037;-69
2023/02/27 09:42:31;;;;;;;1.75;0.90;;;18.90;51.30;;;;;;6273882;28;20036;-68
2023/02/27 09:45:37;;;;;;;2.53;1.13;;;18.90;51.30;;;;;;6274043;28;20024;-69
2023/02/27 09:48:49;;;;;;;2.25;1.30;;;18.90;51.40;;;;;;6272918;28;20521;-69
2023/02/27 09:51:52;;;;;;;1.83;1.10;;;18.90;51.40;;;;;;6269037;28;20048;-69
2023/02/27 09:54:54;;;;;;;1.98;1.00;;;18.90;51.40;;;;;;6285962;28;20019;-70
2023/02/27 09:58:06;;;;;;;1.88;1.20;;;18.90;51.40;;;;;;6278249;28;20075;-70
2023/02/27 10:01:21;;;;;;;2.45;1.08;;;18.90;51.40;;;;;;6296870;28;20020;-67
2023/02/27 10:04:47;;;;;;;2.00;1.20;;;18.90;51.40;;;;;;6297801;28;20610;-68
2023/02/27 10:08:00;;;;;;;;;;;18.90;51.40;;;;;;6291007;28;20033;-68
2023/02/27 10:11:03;;;;;;;4.57;1.35;;;18.90;51.50;;;;;;6291909;28;20405;-68
2023/02/27 10:14:32;;;;;;;2.03;1.17;;;18.90;51.50;;;;;;6275000;28;20029;-68
2023/02/27 10:17:39;;;;;;;3.92;1.27;;;18.90;51.50;;;;;;6271158;28;20064;-68
2023/02/27 10:20:57;;;;;;;1.80;1.15;;;18.90;51.50;;;;;;6270379;28;20045;-68
2023/02/27 10:24:30;;;;;;;2.75;1.13;;;18.90;52.20;;;;;;6271645;28;20072;-68
2023/02/27 10:27:31;;;;;;;1.52;0.90;;;18.90;52.20;;;;;;6272519;28;20032;-68
2023/02/27 10:30:32;;;;;;;2.33;1.23;;;18.90;51.50;;;;;;6271975;28;20021;-68
2023/02/27 10:33:38;;;;;;;2.10;1.25;;;18.90;51.50;;;;;;6256917;28;20540;-68
2023/02/27 10:36:39;;;;;;;5.65;1.33;;;18.90;51.50;;;;;;6266664;28;20045;-68
2023/02/27 10:39:56;;;;;;;2.17;1.23;;;18.90;51.50;;;;;;6271883;28;20066;-68
2023/02/27 10:43:00;;;;;;;2.00;1.15;;;18.90;51.50;;;;;;6271978;28;20024;-68
2023/02/27 10:46:05;;;;;;;4.18;1.00;;;18.90;51.50;;;;;;6262278;28;20057;-68
2023/02/27 10:49:16;;;;;;;;;;;18.90;51.60;;;;;;6272140;28;20118;-68
2023/02/27 10:52:17;;;;;;;1.92;0.90;;;18.90;51.60;;;;;;6270103;28;19947;-68
2023/02/27 10:55:24;;;;;;;1.38;0.93;;;18.90;51.60;;;;;;6276310;28;20021;-68
2023/02/27 10:58:27;;;;;;;2.05;1.10;;;18.90;51.60;;;;;;6291136;28;20021;-67
2023/02/27 11:01:45;;;;;;;4.15;1.35;;;18.90;51.60;;;;;;6285294;28;20031;-68
2023/02/27 11:04:52;;;;;;;1.63;1.05;;;18.90;51.60;;;;;;6280551;28;20063;-68
2023/02/27 11:07:55;;;;;;;2.30;1.20;;;18.90;52.30;;;;;;6271499;28;20031;-68
2023/02/27 11:11:10;;;;;;;1.90;0.85;;;18.90;51.60;;;;;;6270983;28;20027;-68
2023/02/27 11:14:29;;;;;;;2.55;0.98;;;18.90;51.60;;;;;;6256964;28;20045;-68
2023/02/27 11:17:32;;;;;;;1.48;1.00;;;18.90;51.60;;;;;;6290533;28;20087;-67
2023/02/27 11:20:35;;;;;;;2.58;1.38;;;18.90;51.60;;;;;;6289859;28;20509;-68
2023/02/27 11:23:36;;;;;;;1.42;1.02;;;18.90;51.70;;;;;;6271061;28;20444;-68
2023/02/27 11:26:40;;;;;;;2.35;1.20;;;18.90;51.60;;;;;;6282695;28;20086;-68
2023/02/27 11:29:58;;;;;;;2.38;1.17;;;18.90;51.70;;;;;;6295622;28;20077;-68
2023/02/27 11:33:01;;;;;;;2.10;1.15;;;18.90;51.60;;;;;;6275886;28;20050;-68
2023/02/27 11:36:03;;;;;;;1.60;0.98;;;18.90;51.70;;;;;;6251609;28;20044;-68
2023/02/27 11:39:03;;;;;;;1.83;1.02;;;18.90;51.70;;;;;;6269182;28;20025;-68
2023/02/27 11:42:15;;;;;;;1.15;0.65;;;18.90;51.60;;;;;;6270487;28;20086;-68
2023/02/27 11:45:19;;;;;;;1.45;0.80;;;18.90;51.60;;;;;;6293856;28;20025;-68
2023/02/27 11:48:33;;;;;;;1.40;0.88;;;18.90;51.70;;;;;;6270278;28;20047;-68
2023/02/27 11:51:42;;;;;;;1.38;0.90;;;18.90;51.60;;;;;;6277669;28;20077;-67
2023/02/27 11:54:54;;;;;;;2.10;1.02;;;18.90;51.70;;;;;;6293474;28;20474;-68
2023/02/27 11:58:12;;;;;;;2.17;0.90;;;18.90;51.70;;;;;;6263778;28;20032;-68
2023/02/27 12:01:39;;;;;;;5.82;1.30;;;18.90;51.70;;;;;;6274018;28;20307;-67
2023/02/27 12:05:01;;;;;;;7.47;2.42;;;18.90;51.80;;;;;;6287017;28;20044;-68
2023/02/27 12:08:31;;;;;;;10.77;2.83;;;18.90;51.70;;;;;;6269538;28;20084;-68
2023/02/27 12:11:40;;;;;;;13.18;3.30;;;18.90;51.70;;;;;;6275514;28;20041;-68
2023/02/27 12:15:29;;;;;;;13.07;4.30;;;18.90;51.80;;;;;;6294423;28;20454;-68
2023/02/27 12:18:37;;;;;;;16.02;4.93;;;18.90;51.80;;;;;;6293045;28;20029;-68
2023/02/27 12:21:45;;;;;;;19.08;4.47;;;18.90;51.80;;;;;;6288355;28;20077;-68
2023/02/27 12:25:03;;;;;;;21.60;5.80;;;18.90;51.90;;;;;;6273178;28;20473;-68
2023/02/27 12:28:32;;;;;;;15.93;4.90;;;18.90;51.90;;;;;;6292882;28;20123;-68
2023/02/27 12:31:35;;;;;;;20.75;5.75;;;18.90;51.90;;;;;;6294106;28;20036;-69
2023/02/27 12:34:50;;;;;;;21.05;6.00;;;18.90;51.90;;;;;;6249259;28;20034;-68
2023/02/27 12:37:51;;;;;;;;;;;18.90;51.90;;;;;;6268522;28;20036;-68
2023/02/27 12:41:22;;;;;;;18.20;6.13;;;18.90;51.90;;;;;;6280067;28;19904;-68
2023/02/27 12:44:55;;;;;;;22.80;6.10;;;18.90;51.90;;;;;;6276428;28;20111;-68
2023/02/27 12:48:37;;;;;;;18.92;6.40;;;18.90;51.90;;;;;;6262507;28;20111;-68
2023/02/27 12:51:38;;;;;;;16.95;5.95;;;18.90;51.90;;;;;;6271970;28;20045;-68
2023/02/27 12:55:01;;;;;;;20.52;6.70;;;18.90;51.90;;;;;;6298986;28;20038;-68
2023/02/27 12:58:04;;;;;;;16.25;5.63;;;18.90;51.90;;;;;;6271140;28;20020;-68
2023/02/27 13:01:43;;;;;;;23.55;6.35;;;18.90;51.90;;;;;;6274164;28;20021;-68
2023/02/27 13:04:57;;;;;;;14.77;5.63;;;18.90;51.90;;;;;;6247984;28;20643;-68
2023/02/27 13:08:19;;;;;;;23.50;6.60;;;18.90;51.90;;;;;;6268015;28;20465;-67
2023/02/27 13:11:49;;;;;;;16.48;5.70;;;18.90;51.90;;;;;;6298971;28;20470;-68
2023/02/27 13:15:09;;;;;;;18.08;5.68;;;18.90;51.90;;;;;;6267870;28;20025;-68
2023/02/27 13:18:40;;;;;;;18.20;6.10;;;18.90;51.90;;;;;;6259278;28;20140;-68
2023/02/27 13:21:54;;;;;;;14.90;4.97;;;18.90;51.90;;;;;;6273566;28;20037;-67
2023/02/27 13:24:58;;;;;;;15.07;5.82;;;18.90;52.00;;;;;;6273134;28;20036;-69
2023/02/27 13:28:05;;;;;;;17.85;5.88;;;18.90;51.90;;;;;;6273249;28;20066;-68
2023/02/27 13:31:23;;;;;;;16.52;5.40;;;18.90;51.90;;;;;;6271873;28;20024;-67
2023/02/27 13:34:39;;;;;;;15.80;6.10;;;18.90;52.00;;;;;;6268575;28;20021;-69
2023/02/27 13:38:01;;;;;;;15.88;5.80;;;18.90;52.00;;;;;;6272940;28;20359;-70
2023/02/27 13:41:20;;;;;;;14.95;5.18;;;18.90;52.00;;;;;;6248224;28;20494;-68
2023/02/27 13:44:20;;;;;;;15.63;5.15;;;18.90;51.90;;;;;;6264916;28;20025;-69
2023/02/27 13:47:38;;;;;;;14.23;5.20;;;18.90;51.80;;;;;;6273174;28;20043;-67
2023/02/27 13:50:49;;;;;;;10.98;4.50;;;18.90;51.70;;;;;;6287961;28;20525;-67
2023/02/27 13:54:17;;;;;;;13.70;4.88;;;18.90;51.70;;;;;;6277813;28;20382;-68
2023/02/27 13:57:25;;;;;;;12.88;4.32;;;18.90;51.00;;;;;;6271629;28;20410;-69
2023/02/27 14:00:29;;;;;;;9.82;4.07;;;18.90;48.30;;;;;;6292317;28;20103;-68
2023/02/27 14:03:31;;;;;;;11.40;4.22;;;18.90;50.00;;;;;;6265445;28;20016;-69
2023/02/27 14:06:32;;;;;;;14.07;4.70;;;18.90;50.30;;;;;;6291193;28;20063;-69
2023/02/27 14:09:36;;;;;;;9.30;3.95;;;18.90;50.50;;;;;;6270910;28;20025;-69
2023/02/27 14:12:42;;;;;;;8.07;3.42;;;18.90;50.60;;;;;;6261998;28;20032;-69
2023/02/27 14:15:55;;;;;;;9.82;3.58;;;18.90;50.70;;;;;;6268154;28;20029;-69
2023/02/27 14:18:58;;;;;;;12.30;3.67;;;18.90;50.80;;;;;;6271401;28;20029;-69
2023/02/27 14:22:23;;;;;;;8.48;3.40;;;18.90;50.90;;;;;;6271829;28;20033;-69
2023/02/27 14:25:30;;;;;;;11.77;3.90;;;18.90;50.90;;;;;;6278644;28;20451;-69
2023/02/27 14:28:54;;;;;;;8.02;3.42;;;18.90;50.90;;;;;;6295235;28;20070;-69
2023/02/27 14:31:55;;;;;;;6.88;3.58;;;18.90;51.00;;;;;;6295194;28;20424;-68
2023/02/27 14:34:56;;;;;;;8.10;3.42;;;18.90;51.00;;;;;;6255055;28;20028;-68
2023/02/27 14:38:02;;;;;;;6.97;3.38;;;18.90;51.00;;;;;;6270218;28;20021;-68
2023/02/27 14:41:14;;;;;;;6.85;3.20;;;18.90;51.10;;;;;;6271058;28;20055;-69
2023/02/27 14:44:23;;;;;;;7.93;3.60;;;18.90;51.10;;;;;;6286372;28;20112;-69
2023/02/27 14:47:35;;;;;;;7.75;3.03;;;18.90;51.20;;;;;;6271344;28;20104;-69
2023/02/27 14:50:40;;;;;;;7.72;3.03;;;18.90;51.20;;;;;;6270709;28;20032;-69
2023/02/27 14:53:40;;;;;;;8.15;3.03;;;18.90;51.20;;;;;;6271177;28;20451;-69
2023/02/27 14:56:59;;;;;;;6.43;2.78;;;18.90;51.20;;;;;;6270943;28;20033;-69
2023/02/27 15:00:00;;;;;;;4.18;2.30;;;18.90;51.20;;;;;;6276793;28;20027;-69
2023/02/27 15:03:20;;;;;;;8.88;3.28;;;18.90;51.20;;;;;;6296079;28;20420;-69
2023/02/27 15:06:28;;;;;;;7.18;2.80;;;18.90;51.20;;;;;;6278253;28;20486;-69
2023/02/27 15:09:43;;;;;;;6.88;2.58;;;18.90;51.30;;;;;;6271717;28;20071;-69
2023/02/27 15:12:44;;;;;;;5.85;2.83;;;18.90;51.90;;;;;;6284489;28;20039;-69
2023/02/27 15:15:44;;;;;;;6.65;2.70;;;18.90;51.30;;;;;;6269817;28;20494;-69
2023/02/27 15:18:58;;;;;;;7.78;2.88;;;18.90;51.30;;;;;;6269371;28;20163;-69
2023/02/27 15:22:01;;;;;;;6.65;2.92;;;18.90;51.30;;;;;;6269943;28;20116;-69
2023/02/27 15:25:03;;;;;;;5.38;2.17;;;18.90;51.30;;;;;;6269760;28;20035;-68
2023/02/27 15:28:14;;;;;;;6.32;2.70;;;18.90;51.30;;;;;;6268707;28;20021;-69
2023/02/27 15:31:25;;;;;;;5.55;2.47;;;18.90;51.30;;;;;;6267867;28;20116;-69
2023/02/27 15:34:26;;;;;;;4.40;2.28;;;18.90;51.30;;;;;;6269627;28;20032;-69
2023/02/27 15:37:30;;;;;;;6.05;2.75;;;18.90;51.30;;;;;;6292078;28;20223;-69
2023/02/27 15:40:32;;;;;;;8.73;2.50;;;18.90;51.30;;;;;;6269616;28;20059;-69
2023/02/27 15:43:32;;;;;;;5.20;2.40;;;18.90;51.40;;;;;;6269701;28;20082;-69
2023/02/27 15:46:33;;;;;;;4.38;2.20;;;18.90;51.40;;;;;;6270007;28;20025;-69
2023/02/27 15:49:36;;;;;;;5.88;2.70;;;18.90;51.40;;;;;;6268987;28;20036;-69
2023/02/27 15:52:50;;;;;;;4.55;2.17;;;18.90;51.40;;;;;;6292059;28;20367;-68
2023/02/27 15:55:56;;;;;;;5.22;2.20;;;18.90;51.40;;;;;;6270146;28;20035;-68
2023/02/27 15:58:58;;;;;;;4.70;1.95;;;18.90;51.40;;;;;;6269675;28;20068;-69
2023/02/27 16:02:02;;;;;;;7.30;2.58;;;18.90;51.40;;;;;;6268400;28;20036;-67
2023/02/27 16:05:03;;;;;;;5.28;2.25;;;18.90;51.40;;;;;;6269118;28;20059;-68
2023/02/27 16:08:05;;;;;;;3.97;2.35;;;18.90;51.40;;;;;;6292441;28;20419;-69
2023/02/27 16:11:06;;;;;;;6.18;2.15;;;18.90;51.40;;;;;;6294245;28;20040;-68
2023/02/27 16:14:43;;;;;;;4.85;2.42;;;18.90;51.40;;;;;;6294743;28;20029;-68
2023/02/27 16:18:00;;;;;;;4.95;2.28;;;18.90;51.40;;;;;;6293027;28;20162;-69
2023/02/27 16:21:13;;;;;;;3.40;1.60;;;18.90;51.40;;;;;;6288335;28;20501;-68
2023/02/27 16:24:29;;;;;;;3.30;1.73;;;18.90;51.40;;;;;;6266511;28;20485;-68